ES-0169 weather

Aeródromo Fontioso
Fontioso, Castilla y León, Spain

Public forecast

Using degrees Celsius for public forecast. Weather courtesy of forecast.io.

Closest aviation weather report (METAR) to Aeródromo Fontioso

Closest report is Burgos Airport, 26.5 nm (49.1 km) NNE. Retrieved 2019/10/22 08:30 UTC (0 seconds ago):

LEBG 220830Z 03009KT 360V060 9999 BKN005 06/05 Q1018

Closest aviation forecast (TAF) to Aeródromo Fontioso

Closest forecast is Valladolid Airport, 49.7 nm (92.0 km) WSW. Retrieved 2019/10/22 06:27 UTC (2 hours ago):

TAF LEVD 220500Z 2206/2306 02012KT 9999 SCT040 TX13/2215Z TN04/2206Z PROB30 TEMPO 2206/2211 2500 BR BKN014 PROB40 TEMPO 2206/2209 VRB05KT TEMPO 2212/2222 02015G25KT TEMPO 2217/2306 3000 RA SHRA BKN015TCU